Time;durP1;ratioP1;P1;durP2;ratioP2;P2;SDS_P1;SDS_P2;PMS_P1;PMS_P2;Temp;Humidity;BMP_temperature;BMP_pressure;BME280_temperature;BME280_humidity;BME280_pressure;Samples;Min_cycle;Max_cycle;Signal;HPM_P1;HPM_P2
2023/05/03 00:01:33;;;;;;;0.82;0.80;;;;;;;;;;5138628;27;20175;-81
2023/05/03 00:03:58;;;;;;;1.00;0.73;;;;;;;;;;5121455;27;20037;-81
2023/05/03 00:06:24;;;;;;;2.03;1.10;;;;;;;;;;5157101;27;20075;-81
2023/05/03 00:08:50;;;;;;;0.85;0.80;;;;;;;;;;5156985;27;20054;-81
2023/05/03 00:11:15;;;;;;;1.15;0.93;;;;;;;;;;5156903;27;20030;-81
2023/05/03 00:13:41;;;;;;;1.30;1.00;;;;;;;;;;5156837;27;20042;-81
2023/05/03 00:16:07;;;;;;;0.63;0.63;;;;;;;;;;5138448;27;20117;-81
2023/05/03 00:18:32;;;;;;;2.45;0.88;;;;;;;;;;5121457;27;20058;-81
2023/05/03 00:20:58;;;;;;;1.50;1.00;;;;;;;;;;5138374;27;20042;-80
2023/05/03 00:23:24;;;;;;;2.28;0.90;;;;;;;;;;5138153;27;20018;-80
2023/05/03 00:25:53;;;;;;;0.80;0.80;;;;;;;;;;5156823;27;20037;-80
2023/05/03 00:28:19;;;;;;;1.38;0.80;;;;;;;;;;5156615;27;20027;-80
2023/05/03 00:30:44;;;;;;;0.82;0.80;;;;;;;;;;5138018;27;20431;-80
2023/05/03 00:33:10;;;;;;;1.00;0.90;;;;;;;;;;5156659;27;20476;-80
2023/05/03 00:35:35;;;;;;;2.92;0.93;;;;;;;;;;5138002;27;20076;-80
2023/05/03 00:38:00;;;;;;;0.85;0.75;;;;;;;;;;5156653;27;20023;-79
2023/05/03 00:40:26;;;;;;;1.88;0.70;;;;;;;;;;5156724;27;20483;-80
2023/05/03 00:42:51;;;;;;;2.00;0.98;;;;;;;;;;5138890;27;20031;-80
2023/05/03 00:45:17;;;;;;;0.82;0.68;;;;;;;;;;5156514;27;20034;-80
2023/05/03 00:47:42;;;;;;;1.10;0.90;;;;;;;;;;5120777;27;20033;-80
2023/05/03 00:50:10;;;;;;;0.60;0.60;;;;;;;;;;5156089;27;20027;-80
2023/05/03 00:52:36;;;;;;;3.70;0.90;;;;;;;;;;5137552;27;20046;-80
2023/05/03 00:55:01;;;;;;;2.80;0.95;;;;;;;;;;5137733;27;20027;-81
2023/05/03 00:57:27;;;;;;;1.50;1.00;;;;;;;;;;5137794;27;20022;-81
2023/05/03 00:59:52;;;;;;;2.17;0.80;;;;;;;;;;5137415;27;20054;-81
2023/05/03 01:02:18;;;;;;;1.73;1.00;;;;;;;;;;5137539;27;20027;-80
2023/05/03 01:04:44;;;;;;;3.30;0.98;;;;;;;;;;5156578;27;20021;-80
2023/05/03 01:07:40;;;;;;;1.02;0.90;;;;;;;;;;5137625;27;20042;-81
2023/05/03 01:10:34;;;;;;;3.80;0.80;;;;;;;;;;5137179;27;20019;-81
2023/05/03 01:13:16;;;;;;;1.63;0.77;;;;;;;;;;5156189;27;20031;-80
2023/05/03 01:16:07;;;;;;;1.48;0.95;;;;;;;;;;5137340;27;20307;-80
2023/05/03 01:18:38;;;;;;;1.67;0.80;;;;;;;;;;5155820;27;20400;-80
2023/05/03 01:21:04;;;;;;;1.63;0.90;;;;;;;;;;5137753;27;20025;-80
2023/05/03 01:23:39;;;;;;;2.33;0.90;;;;;;;;;;5137264;27;20476;-80
2023/05/03 01:26:21;;;;;;;1.77;0.90;;;;;;;;;;5137204;27;20015;-80
2023/05/03 01:28:46;;;;;;;2.33;0.90;;;;;;;;;;5155451;27;20018;-80
2023/05/03 01:31:17;;;;;;;1.50;0.90;;;;;;;;;;5137370;27;20030;-81
2023/05/03 01:34:15;;;;;;;0.88;0.85;;;;;;;;;;5119820;27;20026;-80
2023/05/03 01:36:43;;;;;;;1.15;0.70;;;;;;;;;;5155345;27;20099;-81
2023/05/03 01:39:13;;;;;;;1.77;0.90;;;;;;;;;;5137089;27;20018;-81
2023/05/03 01:41:41;;;;;;;1.40;0.80;;;;;;;;;;5136889;27;20369;-80
2023/05/03 01:44:08;;;;;;;2.88;1.08;;;;;;;;;;5136933;27;20023;-80
2023/05/03 01:46:33;;;;;;;0.77;0.77;;;;;;;;;;5137195;27;20111;-80
2023/05/03 01:48:58;;;;;;;1.33;0.88;;;;;;;;;;5155179;27;20062;-80
2023/05/03 01:51:24;;;;;;;1.00;0.90;;;;;;;;;;5136903;27;20038;-80
2023/05/03 01:53:50;;;;;;;3.53;0.90;;;;;;;;;;5155154;27;20477;-80
2023/05/03 01:56:15;;;;;;;1.77;1.00;;;;;;;;;;5155142;27;20073;-80
2023/05/03 01:58:40;;;;;;;0.85;0.80;;;;;;;;;;5154962;27;20111;-80
2023/05/03 02:01:06;;;;;;;1.60;0.82;;;;;;;;;;5155437;27;20026;-80
2023/05/03 02:03:32;;;;;;;1.20;0.68;;;;;;;;;;5155112;27;20445;-80
2023/05/03 02:05:58;;;;;;;1.85;0.82;;;;;;;;;;5136720;27;20031;-80
2023/05/03 02:08:23;;;;;;;1.08;0.80;;;;;;;;;;5136491;27;20034;-80
2023/05/03 02:10:48;;;;;;;3.65;0.93;;;;;;;;;;5154949;27;20035;-80
2023/05/03 02:13:15;;;;;;;2.55;0.98;;;;;;;;;;5136743;27;20402;-81
2023/05/03 02:15:40;;;;;;;0.70;0.70;;;;;;;;;;5136284;27;20119;-80
2023/05/03 02:18:07;;;;;;;1.88;0.90;;;;;;;;;;5155150;27;20103;-80
2023/05/03 02:20:36;;;;;;;1.38;0.90;;;;;;;;;;5157802;27;20030;-80
2023/05/03 02:23:02;;;;;;;5.60;0.95;;;;;;;;;;5159197;27;20023;-80
2023/05/03 02:25:28;;;;;;;4.22;0.90;;;;;;;;;;5140902;27;20029;-80
2023/05/03 02:27:53;;;;;;;1.25;0.80;;;;;;;;;;5159526;27;20023;-80
2023/05/03 02:30:19;;;;;;;2.45;1.00;;;;;;;;;;5159104;27;20038;-80
2023/05/03 02:32:44;;;;;;;1.17;0.75;;;;;;;;;;5123665;27;20461;-81
2023/05/03 02:35:10;;;;;;;0.63;0.63;;;;;;;;;;5158929;27;20026;-80
2023/05/03 02:37:35;;;;;;;2.22;1.02;;;;;;;;;;5158784;27;20484;-80
2023/05/03 02:40:00;;;;;;;2.72;0.70;;;;;;;;;;5158785;27;20105;-81
2023/05/03 02:42:26;;;;;;;0.75;0.70;;;;;;;;;;5159567;27;20023;-80
2023/05/03 02:44:51;;;;;;;1.85;0.80;;;;;;;;;;5158710;27;20031;-81
2023/05/03 02:47:17;;;;;;;1.38;0.90;;;;;;;;;;5140396;27;20031;-81
2023/05/03 02:49:42;;;;;;;0.70;0.60;;;;;;;;;;5140055;27;20519;-81
2023/05/03 02:52:08;;;;;;;1.13;0.80;;;;;;;;;;5140065;27;20050;-80
2023/05/03 02:54:33;;;;;;;1.77;1.10;;;;;;;;;;5158866;27;20031;-80
2023/05/03 02:56:58;;;;;;;3.15;1.13;;;;;;;;;;5158818;27;20082;-80
2023/05/03 02:59:24;;;;;;;3.63;0.90;;;;;;;;;;5158500;27;20049;-80
2023/05/03 03:01:49;;;;;;;0.82;0.70;;;;;;;;;;5139840;27;20041;-81
2023/05/03 03:04:15;;;;;;;2.20;0.90;;;;;;;;;;5140335;27;20415;-81
2023/05/03 03:06:40;;;;;;;0.80;0.70;;;;;;;;;;5105700;27;20034;-81
2023/05/03 03:09:06;;;;;;;1.65;0.88;;;;;;;;;;5158116;27;20042;-81
2023/05/03 03:11:32;;;;;;;1.17;0.70;;;;;;;;;;5158193;27;20035;-81
2023/05/03 03:13:57;;;;;;;1.65;0.70;;;;;;;;;;5139791;27;20034;-81
2023/05/03 03:16:22;;;;;;;1.67;0.88;;;;;;;;;;5158446;27;20022;-81
2023/05/03 03:18:48;;;;;;;2.08;0.95;;;;;;;;;;5139489;27;20082;-81
2023/05/03 03:21:13;;;;;;;0.60;0.60;;;;;;;;;;5139377;27;20022;-81
2023/05/03 03:23:38;;;;;;;1.52;0.82;;;;;;;;;;5139416;27;20187;-80
2023/05/03 03:26:05;;;;;;;3.10;1.10;;;;;;;;;;5158066;27;20183;-80
2023/05/03 03:28:30;;;;;;;0.70;0.70;;;;;;;;;;5158458;27;20444;-80
2023/05/03 03:30:55;;;;;;;4.25;0.70;;;;;;;;;;5138295;27;20062;-80
2023/05/03 03:33:21;;;;;;;3.03;0.80;;;;;;;;;;5157859;27;20034;-81
2023/05/03 03:35:46;;;;;;;0.80;0.80;;;;;;;;;;5139508;27;20023;-80
2023/05/03 03:38:12;;;;;;;0.90;0.70;;;;;;;;;;5139091;27;20393;-81
2023/05/03 03:40:37;;;;;;;1.95;0.68;;;;;;;;;;5157725;27;20079;-81
2023/05/03 03:43:03;;;;;;;2.15;0.98;;;;;;;;;;5158481;27;20426;-81
2023/05/03 03:45:28;;;;;;;4.38;0.93;;;;;;;;;;5139242;27;20031;-81
2023/05/03 03:47:56;;;;;;;2.97;1.23;;;;;;;;;;5157507;27;20390;-81
2023/05/03 03:50:22;;;;;;;3.20;1.00;;;;;;;;;;5138822;27;20079;-81
2023/05/03 03:52:48;;;;;;;1.40;0.80;;;;;;;;;;5139123;27;20469;-81
2023/05/03 03:55:13;;;;;;;1.65;0.90;;;;;;;;;;5121943;27;20099;-81
2023/05/03 03:57:39;;;;;;;2.38;0.80;;;;;;;;;;5157324;27;20130;-80
2023/05/03 04:00:09;;;;;;;1.55;0.88;;;;;;;;;;5156858;27;20043;-80
2023/05/03 04:02:34;;;;;;;1.85;1.13;;;;;;;;;;5139751;27;20027;-80
2023/05/03 04:05:00;;;;;;;1.00;0.70;;;;;;;;;;5104496;27;20026;-79
2023/05/03 04:07:25;;;;;;;3.22;0.93;;;;;;;;;;5157370;27;20110;-80
2023/05/03 04:09:50;;;;;;;1.73;0.80;;;;;;;;;;5138070;27;20396;-80
2023/05/03 04:12:16;;;;;;;2.95;0.90;;;;;;;;;;5138390;27;20046;-80
2023/05/03 04:14:41;;;;;;;0.95;0.80;;;;;;;;;;5138349;27;20034;-81
2023/05/03 04:17:06;;;;;;;1.48;0.60;;;;;;;;;;5156893;27;20109;-81
2023/05/03 04:19:32;;;;;;;1.30;0.90;;;;;;;;;;5156871;27;20031;-81
2023/05/03 04:21:57;;;;;;;0.85;0.77;;;;;;;;;;5156646;27;20079;-80
2023/05/03 04:24:23;;;;;;;0.85;0.73;;;;;;;;;;5120899;27;20397;-80
2023/05/03 04:26:50;;;;;;;5.40;1.30;;;;;;;;;;5156674;27;20030;-81
2023/05/03 04:29:15;;;;;;;1.25;0.80;;;;;;;;;;5156711;27;20023;-80
2023/05/03 04:31:41;;;;;;;0.85;0.80;;;;;;;;;;5137950;27;20481;-80
2023/05/03 04:34:06;;;;;;;0.60;0.60;;;;;;;;;;5138140;27;20471;-80
2023/05/03 04:36:32;;;;;;;0.70;0.70;;;;;;;;;;5137777;27;20058;-80
2023/05/03 04:38:58;;;;;;;0.85;0.85;;;;;;;;;;5137746;27;20026;-81
2023/05/03 04:41:23;;;;;;;2.47;0.90;;;;;;;;;;5137743;27;20515;-80
2023/05/03 04:43:49;;;;;;;0.88;0.80;;;;;;;;;;5120260;27;20038;-78
2023/05/03 04:46:15;;;;;;;3.60;0.90;;;;;;;;;;5137810;27;20030;-80
2023/05/03 04:48:40;;;;;;;1.10;0.80;;;;;;;;;;5156538;27;20026;-80
2023/05/03 04:51:06;;;;;;;1.15;0.80;;;;;;;;;;5155933;27;20054;-80
2023/05/03 04:53:31;;;;;;;1.35;0.90;;;;;;;;;;5124989;27;20064;-80
2023/05/03 04:55:57;;;;;;;3.63;1.40;;;;;;;;;;5115543;27;20030;-80
2023/05/03 04:58:23;;;;;;;2.75;1.17;;;;;;;;;;5116148;27;20051;-81
2023/05/03 05:00:49;;;;;;;4.25;1.95;;;;;;;;;;5134707;27;20027;-82
2023/05/03 05:03:15;;;;;;;3.53;1.25;;;;;;;;;;5134585;27;20027;-81
2023/05/03 05:05:40;;;;;;;3.72;1.77;;;;;;;;;;5134436;27;20492;-82
2023/05/03 05:08:05;;;;;;;4.50;1.77;;;;;;;;;;5134598;27;20087;-81
2023/05/03 05:10:31;;;;;;;3.67;1.40;;;;;;;;;;5134249;27;20484;-82
2023/05/03 05:12:57;;;;;;;4.90;1.67;;;;;;;;;;5134856;27;20031;-82
2023/05/03 05:15:22;;;;;;;7.25;1.52;;;;;;;;;;5115961;27;20117;-82
2023/05/03 05:17:48;;;;;;;5.72;1.60;;;;;;;;;;5134366;27;20442;-82
2023/05/03 05:20:13;;;;;;;10.02;2.30;;;;;;;;;;5135067;27;20103;-80
2023/05/03 05:22:38;;;;;;;16.40;2.40;;;;;;;;;;5117122;27;20095;-82
2023/05/03 05:25:05;;;;;;;13.27;2.13;;;;;;;;;;5116586;27;20102;-82
2023/05/03 05:27:31;;;;;;;10.93;2.03;;;;;;;;;;5100000;27;20393;-81
2023/05/03 05:29:57;;;;;;;6.93;2.20;;;;;;;;;;5116924;27;20028;-81
2023/05/03 05:32:22;;;;;;;8.57;2.85;;;;;;;;;;5099397;27;20139;-81
2023/05/03 05:34:54;;;;;;;11.27;2.40;;;;;;;;;;5134716;27;20435;-81
2023/05/03 05:37:22;;;;;;;5.05;1.77;;;;;;;;;;5116425;27;20110;-81
2023/05/03 05:39:48;;;;;;;12.32;2.30;;;;;;;;;;5135496;27;20489;-81
2023/05/03 05:42:13;;;;;;;7.05;2.33;;;;;;;;;;5116783;27;20031;-82
2023/05/03 05:44:39;;;;;;;8.27;2.03;;;;;;;;;;5134739;27;20027;-82
2023/05/03 05:47:05;;;;;;;5.25;2.13;;;;;;;;;;5134955;27;20030;-82
2023/05/03 05:49:31;;;;;;;12.68;2.50;;;;;;;;;;5116303;27;20124;-82
2023/05/03 05:51:56;;;;;;;4.32;1.65;;;;;;;;;;5134763;27;20051;-82
2023/05/03 05:54:22;;;;;;;6.82;1.90;;;;;;;;;;5115619;27;20109;-82
2023/05/03 05:56:47;;;;;;;7.32;1.60;;;;;;;;;;5134446;27;20430;-82
2023/05/03 05:59:12;;;;;;;6.65;1.60;;;;;;;;;;5116227;28;20108;-81
2023/05/03 06:01:43;;;;;;;6.70;1.83;;;;;;;;;;5099048;27;20118;-80
2023/05/03 06:04:09;;;;;;;8.57;1.85;;;;;;;;;;5130575;27;20547;-80
2023/05/03 06:06:35;;;;;;;8.02;1.60;;;;;;;;;;5140028;27;20030;-79
2023/05/03 06:09:00;;;;;;;5.40;1.80;;;;;;;;;;5140574;27;20472;-78
2023/05/03 06:11:26;;;;;;;4.28;1.60;;;;;;;;;;5140664;27;20473;-78
2023/05/03 06:13:51;;;;;;;10.45;2.38;;;;;;;;;;5137684;27;20022;-78
2023/05/03 06:16:17;;;;;;;6.95;1.48;;;;;;;;;;5116690;28;20038;-81
2023/05/03 06:18:42;;;;;;;5.00;1.48;;;;;;;;;;5131874;28;20048;-80
2023/05/03 06:21:09;;;;;;;4.07;1.10;;;;;;;;;;5121140;27;20038;-79
2023/05/03 06:23:36;;;;;;;5.20;1.33;;;;;;;;;;5139469;27;20051;-79
2023/05/03 06:26:02;;;;;;;2.17;1.20;;;;;;;;;;5158779;27;20038;-79
2023/05/03 06:28:27;;;;;;;3.78;1.13;;;;;;;;;;5124500;27;20110;-78
2023/05/03 06:30:53;;;;;;;2.63;1.35;;;;;;;;;;5121763;27;20058;-81
2023/05/03 06:33:18;;;;;;;4.88;1.40;;;;;;;;;;5159110;27;20027;-79
2023/05/03 06:35:45;;;;;;;5.13;1.10;;;;;;;;;;5141459;27;20030;-81
2023/05/03 06:38:11;;;;;;;3.10;1.20;;;;;;;;;;5155761;27;20026;-82
2023/05/03 06:40:36;;;;;;;3.65;1.52;;;;;;;;;;5154454;27;20038;-80
2023/05/03 06:43:02;;;;;;;1.73;1.10;;;;;;;;;;5119044;27;20353;-80
2023/05/03 06:45:27;;;;;;;2.13;1.00;;;;;;;;;;5156140;27;20019;-80
2023/05/03 06:47:53;;;;;;;3.38;1.17;;;;;;;;;;5139218;27;20389;-78
2023/05/03 06:50:19;;;;;;;3.45;1.10;;;;;;;;;;5154894;27;20176;-81
2023/05/03 06:52:45;;;;;;;2.63;0.98;;;;;;;;;;5119257;27;20079;-80
2023/05/03 06:55:11;;;;;;;3.15;1.30;;;;;;;;;;5137228;27;20034;-80
2023/05/03 06:57:37;;;;;;;3.05;1.10;;;;;;;;;;5136595;27;20419;-81
2023/05/03 07:00:06;;;;;;;3.38;1.02;;;;;;;;;;5137323;27;20038;-82
2023/05/03 07:02:32;;;;;;;1.63;0.95;;;;;;;;;;5136750;27;20539;-80
2023/05/03 07:04:57;;;;;;;2.78;1.30;;;;;;;;;;5154176;27;20038;-81
2023/05/03 07:07:23;;;;;;;2.88;1.33;;;;;;;;;;5158145;27;20370;-80
2023/05/03 07:09:48;;;;;;;1.27;0.90;;;;;;;;;;5158109;27;20034;-80
2023/05/03 07:12:15;;;;;;;1.58;0.98;;;;;;;;;;5158132;27;20469;-79
2023/05/03 07:14:40;;;;;;;3.63;1.30;;;;;;;;;;5139716;27;20495;-81
2023/05/03 07:17:06;;;;;;;3.90;1.00;;;;;;;;;;5122092;27;20034;-81
2023/05/03 07:19:31;;;;;;;1.65;0.90;;;;;;;;;;5139295;27;20030;-80
2023/05/03 07:21:57;;;;;;;1.65;0.90;;;;;;;;;;5157720;27;20034;-80
2023/05/03 07:24:24;;;;;;;2.20;0.93;;;;;;;;;;5139230;27;20027;-79
2023/05/03 07:26:50;;;;;;;3.13;1.10;;;;;;;;;;5139528;27;20074;-80
2023/05/03 07:29:15;;;;;;;2.67;0.90;;;;;;;;;;5138965;27;20456;-78
2023/05/03 07:31:40;;;;;;;1.17;0.73;;;;;;;;;;5139236;27;20035;-78
2023/05/03 07:34:06;;;;;;;3.38;0.98;;;;;;;;;;5157461;27;20472;-78
2023/05/03 07:36:31;;;;;;;1.90;0.85;;;;;;;;;;5139093;27;20050;-78
2023/05/03 07:38:57;;;;;;;2.30;1.00;;;;;;;;;;5157308;27;20022;-78
2023/05/03 07:41:23;;;;;;;1.63;0.90;;;;;;;;;;5138717;27;20038;-78
2023/05/03 07:43:48;;;;;;;2.03;0.80;;;;;;;;;;5157586;27;20022;-78
2023/05/03 07:46:14;;;;;;;1.77;0.73;;;;;;;;;;5139305;27;20074;-79
2023/05/03 07:48:39;;;;;;;4.88;1.00;;;;;;;;;;5157451;27;20030;-79
2023/05/03 07:51:05;;;;;;;1.08;0.77;;;;;;;;;;5138910;27;20027;-78
2023/05/03 07:53:30;;;;;;;1.73;0.70;;;;;;;;;;5138830;27;20026;-80
2023/05/03 07:55:56;;;;;;;1.25;0.65;;;;;;;;;;5157394;27;20504;-79
2023/05/03 07:58:21;;;;;;;1.55;0.57;;;;;;;;;;5157187;27;20497;-80
2023/05/03 08:00:47;;;;;;;3.25;1.30;;;;;;;;;;5157527;27;20087;-79
2023/05/03 08:03:12;;;;;;;3.42;0.73;;;;;;;;;;5157422;27;20113;-80
2023/05/03 08:05:38;;;;;;;1.73;0.70;;;;;;;;;;5158265;27;20025;-78
2023/05/03 08:08:04;;;;;;;6.65;0.98;;;;;;;;;;5158628;27;20429;-78
2023/05/03 08:10:29;;;;;;;12.20;1.02;;;;;;;;;;5157617;27;20077;-78
2023/05/03 08:12:55;;;;;;;2.97;0.70;;;;;;;;;;5139458;27;20038;-78
2023/05/03 08:15:20;;;;;;;3.17;0.70;;;;;;;;;;5157444;27;20054;-81
2023/05/03 08:17:45;;;;;;;4.70;0.80;;;;;;;;;;5137707;27;20039;-80
2023/05/03 08:20:12;;;;;;;4.88;1.00;;;;;;;;;;5157120;27;20035;-80
2023/05/03 08:22:39;;;;;;;1.25;0.75;;;;;;;;;;5138052;27;20461;-79
2023/05/03 08:25:05;;;;;;;3.28;1.10;;;;;;;;;;5138523;27;20026;-79
2023/05/03 08:27:31;;;;;;;0.70;0.60;;;;;;;;;;5156447;27;20038;-79
2023/05/03 08:29:56;;;;;;;1.15;0.73;;;;;;;;;;5156544;27;20075;-79
2023/05/03 08:32:23;;;;;;;1.77;0.80;;;;;;;;;;5138253;27;20039;-80
2023/05/03 08:34:49;;;;;;;2.72;0.90;;;;;;;;;;5138482;27;20038;-79
2023/05/03 08:37:15;;;;;;;7.00;1.02;;;;;;;;;;5157106;27;20485;-78
2023/05/03 08:39:40;;;;;;;1.92;0.88;;;;;;;;;;5157413;27;20019;-79
2023/05/03 08:42:07;;;;;;;4.68;0.90;;;;;;;;;;5138246;27;20038;-79
2023/05/03 08:44:36;;;;;;;2.53;0.68;;;;;;;;;;5138344;27;20040;-78
2023/05/03 08:47:04;;;;;;;2.47;0.75;;;;;;;;;;5137597;27;20026;-79
2023/05/03 08:49:30;;;;;;;3.72;1.17;;;;;;;;;;5156396;27;20019;-79
2023/05/03 08:51:56;;;;;;;2.72;0.90;;;;;;;;;;5156048;27;20026;-78
2023/05/03 08:54:23;;;;;;;2.25;0.90;;;;;;;;;;5156322;27;20033;-79
2023/05/03 08:56:48;;;;;;;3.63;0.82;;;;;;;;;;5157272;27;20056;-79
2023/05/03 08:59:16;;;;;;;1.17;0.77;;;;;;;;;;5156849;27;20066;-79
2023/05/03 09:01:42;;;;;;;6.82;0.90;;;;;;;;;;5156137;27;20098;-78
2023/05/03 09:04:09;;;;;;;3.20;1.20;;;;;;;;;;5157586;27;20035;-79
2023/05/03 09:06:35;;;;;;;14.25;1.58;;;;;;;;;;5157689;27;20031;-78
2023/05/03 09:09:04;;;;;;;2.13;1.05;;;;;;;;;;5122252;27;20031;-79
2023/05/03 09:11:30;;;;;;;5.60;1.08;;;;;;;;;;5111933;28;20043;-77
2023/05/03 09:14:16;;;;;;;3.85;1.40;;;;;;;;;;5109644;28;20041;-78
2023/05/03 09:16:43;;;;;;;7.97;1.88;;;;;;;;;;5140054;27;20029;-79
2023/05/03 09:19:11;;;;;;;6.22;1.08;;;;;;;;;;5137076;27;20019;-80
2023/05/03 09:21:37;;;;;;;3.22;1.23;;;;;;;;;;5137101;27;20041;-81
2023/05/03 09:24:12;;;;;;;3.13;0.90;;;;;;;;;;5119879;27;20018;-81
2023/05/03 09:26:39;;;;;;;1.80;0.93;;;;;;;;;;5155811;27;20029;-81
2023/05/03 09:29:05;;;;;;;2.50;0.80;;;;;;;;;;5155396;27;20022;-81
2023/05/03 09:31:32;;;;;;;4.07;1.10;;;;;;;;;;5137045;27;20074;-80
2023/05/03 09:33:58;;;;;;;2.63;1.10;;;;;;;;;;5155718;27;20023;-81
2023/05/03 09:36:24;;;;;;;2.25;1.00;;;;;;;;;;5119717;27;20034;-80
2023/05/03 09:38:51;;;;;;;2.70;0.80;;;;;;;;;;5136871;27;20049;-80
2023/05/03 09:41:26;;;;;;;9.35;1.50;;;;;;;;;;5136716;27;20064;-81
2023/05/03 09:43:54;;;;;;;1.63;0.90;;;;;;;;;;5155381;27;20093;-81
2023/05/03 09:46:20;;;;;;;5.25;1.20;;;;;;;;;;5155802;27;20023;-81
2023/05/03 09:48:45;;;;;;;1.85;1.10;;;;;;;;;;5137008;27;20033;-80
2023/05/03 09:51:11;;;;;;;4.88;0.93;;;;;;;;;;5154940;27;20481;-81
2023/05/03 09:53:38;;;;;;;3.10;0.90;;;;;;;;;;5136546;27;20157;-80
2023/05/03 09:56:11;;;;;;;2.17;0.93;;;;;;;;;;5136674;27;20033;-80
2023/05/03 09:58:37;;;;;;;6.25;0.80;;;;;;;;;;5132388;27;20043;-79
2023/05/03 10:01:02;;;;;;;3.33;1.10;;;;;;;;;;5116295;27;20026;-80
2023/05/03 10:03:39;;;;;;;3.80;1.10;;;;;;;;;;5116165;27;20076;-80
2023/05/03 10:06:10;;;;;;;2.65;1.05;;;;;;;;;;5134517;27;20110;-80
2023/05/03 10:08:45;;;;;;;2.30;0.80;;;;;;;;;;5115924;28;20083;-80
2023/05/03 10:11:13;;;;;;;1.15;0.65;;;;;;;;;;5115702;28;20027;-80
2023/05/03 10:13:38;;;;;;;5.40;1.20;;;;;;;;;;5133902;28;20027;-80
2023/05/03 10:16:10;;;;;;;3.15;1.30;;;;;;;;;;5133839;28;20060;-80
2023/05/03 10:18:59;;;;;;;3.65;1.02;;;;;;;;;;5134070;28;20030;-80
2023/05/03 10:21:57;;;;;;;3.60;0.95;;;;;;;;;;5115324;28;20031;-80
2023/05/03 10:24:22;;;;;;;4.50;0.80;;;;;;;;;;5126496;28;20035;-80
2023/05/03 10:26:49;;;;;;;3.67;0.93;;;;;;;;;;5115888;28;20511;-80
2023/05/03 10:29:33;;;;;;;7.05;1.00;;;;;;;;;;5134298;28;20105;-80
2023/05/03 10:31:59;;;;;;;3.92;1.00;;;;;;;;;;5134078;28;20023;-80
2023/05/03 10:34:31;;;;;;;1.38;0.85;;;;;;;;;;5115833;28;20367;-79
2023/05/03 10:37:00;;;;;;;2.63;1.20;;;;;;;;;;5134383;28;20481;-80
2023/05/03 10:39:27;;;;;;;1.67;0.82;;;;;;;;;;5115577;28;20038;-81
2023/05/03 10:42:02;;;;;;;2.35;1.10;;;;;;;;;;5119231;27;20027;-79
2023/05/03 10:44:34;;;;;;;5.10;1.17;;;;;;;;;;5120113;27;20054;-80
2023/05/03 10:47:16;;;;;;;1.40;1.00;;;;;;;;;;5120072;27;20022;-80
2023/05/03 10:49:42;;;;;;;2.92;1.25;;;;;;;;;;5102374;27;20031;-81
2023/05/03 10:52:38;;;;;;;1.38;0.98;;;;;;;;;;5119603;27;20172;-81
2023/05/03 10:55:12;;;;;;;2.08;0.93;;;;;;;;;;5138326;27;20019;-79
2023/05/03 10:57:40;;;;;;;2.97;0.90;;;;;;;;;;5101577;27;20083;-80
2023/05/03 11:00:23;;;;;;;2.65;1.10;;;;;;;;;;5118809;27;20080;-80
2023/05/03 11:03:20;;;;;;;1.48;0.90;;;;;;;;;;5118489;27;20107;-78
2023/05/03 11:05:49;;;;;;;2.97;1.05;;;;;;;;;;5137021;27;20023;-79
2023/05/03 11:08:17;;;;;;;1.88;0.90;;;;;;;;;;5118730;27;20486;-79
2023/05/03 11:10:47;;;;;;;2.03;1.10;;;;;;;;;;5136866;27;20019;-79
2023/05/03 11:13:13;;;;;;;1.60;0.98;;;;;;;;;;5118416;27;20037;-79
2023/05/03 11:15:39;;;;;;;3.75;1.00;;;;;;;;;;5118420;27;20102;-79
2023/05/03 11:18:06;;;;;;;5.32;1.10;;;;;;;;;;5118323;27;20035;-79
2023/05/03 11:20:31;;;;;;;4.85;0.90;;;;;;;;;;5118454;27;20019;-80
2023/05/03 11:22:57;;;;;;;6.90;1.35;;;;;;;;;;5118359;27;20079;-80
2023/05/03 11:25:22;;;;;;;1.85;1.00;;;;;;;;;;5101325;27;20470;-80
2023/05/03 11:27:47;;;;;;;4.00;1.10;;;;;;;;;;5137777;27;20035;-80
2023/05/03 11:30:13;;;;;;;3.90;0.98;;;;;;;;;;5101722;27;20073;-79
2023/05/03 11:32:41;;;;;;;1.90;0.95;;;;;;;;;;5118874;27;20027;-80
2023/05/03 11:35:06;;;;;;;4.75;1.02;;;;;;;;;;5101588;27;20045;-80
2023/05/03 11:37:33;;;;;;;4.43;1.30;;;;;;;;;;5118679;27;20477;-80
2023/05/03 11:39:59;;;;;;;2.17;1.05;;;;;;;;;;5118881;27;20027;-80
2023/05/03 11:42:25;;;;;;;7.80;1.38;;;;;;;;;;5119123;27;20130;-80
2023/05/03 11:44:54;;;;;;;3.22;1.00;;;;;;;;;;5118474;27;20046;-80
2023/05/03 11:47:20;;;;;;;3.85;0.98;;;;;;;;;;5137112;27;20027;-81
2023/05/03 11:49:52;;;;;;;4.95;1.10;;;;;;;;;;5118438;27;20023;-80
2023/05/03 11:52:22;;;;;;;7.68;1.52;;;;;;;;;;5135450;27;20037;-80
2023/05/03 11:54:48;;;;;;;4.25;1.10;;;;;;;;;;5118390;27;20034;-80
2023/05/03 11:57:14;;;;;;;1.30;1.13;;;;;;;;;;5118569;27;20031;-80
2023/05/03 11:59:39;;;;;;;2.15;1.10;;;;;;;;;;5117844;27;20044;-80
2023/05/03 12:02:06;;;;;;;5.25;1.13;;;;;;;;;;5136726;27;20448;-80
2023/05/03 12:04:32;;;;;;;2.85;1.02;;;;;;;;;;5118277;27;20389;-80
2023/05/03 12:06:57;;;;;;;0.98;0.98;;;;;;;;;;5117570;27;20023;-80
2023/05/03 12:09:24;;;;;;;1.35;1.00;;;;;;;;;;5136190;27;20038;-81
2023/05/03 12:11:50;;;;;;;6.90;1.35;;;;;;;;;;5118528;27;20037;-81
2023/05/03 12:14:15;;;;;;;2.92;1.10;;;;;;;;;;5100726;27;20031;-80
2023/05/03 12:16:51;;;;;;;1.45;1.13;;;;;;;;;;5136174;27;20072;-81
2023/05/03 12:19:24;;;;;;;1.52;1.10;;;;;;;;;;5118100;27;20485;-81
2023/05/03 12:21:50;;;;;;;2.33;0.93;;;;;;;;;;5117831;27;20033;-80
2023/05/03 12:24:17;;;;;;;1.67;1.05;;;;;;;;;;5136149;27;20054;-81
2023/05/03 12:26:47;;;;;;;4.85;1.65;;;;;;;;;;5100947;27;20030;-81
2023/05/03 12:29:12;;;;;;;7.07;1.42;;;;;;;;;;5083964;27;20038;-80
2023/05/03 12:31:38;;;;;;;9.38;1.00;;;;;;;;;;5117932;27;20031;-80
2023/05/03 12:34:04;;;;;;;3.53;1.05;;;;;;;;;;5135823;27;20457;-80
2023/05/03 12:36:32;;;;;;;3.60;1.10;;;;;;;;;;5117628;27;20092;-79
2023/05/03 12:39:01;;;;;;;2.33;1.30;;;;;;;;;;5136110;27;20046;-79
2023/05/03 12:41:30;;;;;;;2.15;1.33;;;;;;;;;;5135521;27;20041;-80
2023/05/03 12:43:56;;;;;;;8.25;1.50;;;;;;;;;;5100480;27;20031;-80
2023/05/03 12:46:25;;;;;;;5.20;1.42;;;;;;;;;;5135798;27;20023;-80
2023/05/03 12:48:54;;;;;;;2.67;1.10;;;;;;;;;;5117412;27;20386;-80
2023/05/03 12:51:19;;;;;;;4.00;1.50;;;;;;;;;;5100765;27;20019;-79
2023/05/03 12:53:45;;;;;;;2.35;1.40;;;;;;;;;;5101181;27;20027;-79
2023/05/03 12:56:11;;;;;;;1.98;1.15;;;;;;;;;;5118139;27;20500;-79
2023/05/03 12:58:36;;;;;;;3.80;1.27;;;;;;;;;;5100366;27;20055;-79
2023/05/03 13:01:02;;;;;;;1.80;1.10;;;;;;;;;;5135270;27;20027;-79
2023/05/03 13:03:27;;;;;;;3.28;1.60;;;;;;;;;;5134546;27;20034;-78
2023/05/03 13:05:53;;;;;;;6.28;1.63;;;;;;;;;;5099254;27;20109;-79
2023/05/03 13:08:18;;;;;;;1.98;1.00;;;;;;;;;;5116189;27;20035;-79
2023/05/03 13:10:44;;;;;;;2.25;1.00;;;;;;;;;;5134349;27;20024;-79
2023/05/03 13:13:10;;;;;;;5.45;0.98;;;;;;;;;;5134905;27;20027;-79
2023/05/03 13:15:36;;;;;;;2.85;1.10;;;;;;;;;;5134385;27;20071;-79
2023/05/03 13:18:03;;;;;;;3.70;1.48;;;;;;;;;;5134304;27;20019;-79
2023/05/03 13:20:29;;;;;;;3.10;1.20;;;;;;;;;;5134947;27;20043;-80
2023/05/03 13:22:56;;;;;;;7.05;1.30;;;;;;;;;;5100797;27;20110;-79
2023/05/03 13:25:21;;;;;;;3.40;1.20;;;;;;;;;;5137471;27;20107;-79
2023/05/03 13:27:49;;;;;;;4.40;1.75;;;;;;;;;;5136652;27;20023;-80
2023/05/03 13:30:15;;;;;;;3.95;1.55;;;;;;;;;;5136919;27;20066;-80
2023/05/03 13:32:40;;;;;;;6.00;2.35;;;;;;;;;;5116735;27;20031;-78
2023/05/03 13:35:08;;;;;;;3.97;1.60;;;;;;;;;;5099465;27;20442;-79
2023/05/03 13:37:34;;;;;;;4.72;1.63;;;;;;;;;;5116773;27;20034;-79
2023/05/03 13:39:59;;;;;;;7.05;1.58;;;;;;;;;;5116782;27;20015;-79
2023/05/03 13:42:25;;;;;;;3.85;1.55;;;;;;;;;;5116722;27;20035;-80
2023/05/03 13:44:50;;;;;;;4.05;1.73;;;;;;;;;;5099482;27;20031;-79
2023/05/03 13:47:15;;;;;;;5.22;1.77;;;;;;;;;;5116204;27;20054;-79
2023/05/03 13:49:41;;;;;;;4.43;1.65;;;;;;;;;;5134636;27;20023;-79
2023/05/03 13:52:06;;;;;;;3.33;1.23;;;;;;;;;;5134574;27;20046;-78
2023/05/03 13:54:32;;;;;;;2.63;1.40;;;;;;;;;;5116029;27;20076;-80
2023/05/03 13:56:57;;;;;;;1.70;1.30;;;;;;;;;;5116588;27;20080;-79
2023/05/03 13:59:23;;;;;;;2.03;1.42;;;;;;;;;;5098933;28;20410;-78
2023/05/03 14:01:48;;;;;;;1.80;1.30;;;;;;;;;;5099335;27;20550;-79
2023/05/03 14:04:14;;;;;;;1.55;1.02;;;;;;;;;;5116066;27;20094;-79
2023/05/03 14:06:39;;;;;;;2.95;1.23;;;;;;;;;;5116566;28;20031;-79
2023/05/03 14:09:05;;;;;;;1.58;1.20;;;;;;;;;;5116132;27;20035;-79
2023/05/03 14:11:30;;;;;;;2.78;1.50;;;;;;;;;;5134346;27;20027;-80
2023/05/03 14:13:56;;;;;;;1.98;1.23;;;;;;;;;;5099204;28;20177;-80
2023/05/03 14:16:22;;;;;;;4.28;1.27;;;;;;;;;;5098208;28;20397;-79
2023/05/03 14:18:49;;;;;;;1.92;1.00;;;;;;;;;;5115868;28;20027;-79
2023/05/03 14:21:17;;;;;;;1.55;1.00;;;;;;;;;;5116128;28;20019;-79
2023/05/03 14:23:43;;;;;;;1.92;1.20;;;;;;;;;;5099265;28;20500;-79
2023/05/03 14:26:09;;;;;;;2.08;1.20;;;;;;;;;;5134798;28;20023;-79
2023/05/03 14:28:35;;;;;;;1.20;1.10;;;;;;;;;;5098753;28;20027;-80
2023/05/03 14:31:02;;;;;;;1.10;1.00;;;;;;;;;;5116329;28;20027;-81
2023/05/03 14:33:28;;;;;;;1.60;1.08;;;;;;;;;;5099027;28;20034;-79
2023/05/03 14:35:53;;;;;;;1.35;0.90;;;;;;;;;;5134397;28;20393;-79
2023/05/03 14:38:18;;;;;;;1.13;1.02;;;;;;;;;;5098703;28;20031;-80
2023/05/03 14:40:44;;;;;;;2.78;1.00;;;;;;;;;;5134412;28;20041;-80
2023/05/03 14:43:09;;;;;;;3.10;1.05;;;;;;;;;;5099561;28;20086;-79